2CUTH EGJJ-EGNR
Flight info
| Callsign | 2CUTH |
|---|---|
| Flight time | 1h 37m |
| Altitude | 8000 |
| Route | SKERY DCT DAWLY N92 EXMOR DCT CARWI N864 ETNAH DCT AVTIC DCT OSWEZ DCT MONTY DCT GODPA DCT KEGUN |
| Aircraft | DA62/L-SBDFGRY/S |
Departure
| Time | 2026-04-26 09:32 |
|---|---|
| Airport | Jersey Airport (EGJJ) |
Arrival
| Time | 2026-04-26 11:09 |
|---|---|
| Airport | Hawarden Airport (EGNR) |
| Time | Latitude | Longitude | Altitude | Speed | Heading |
|---|---|---|---|---|---|
| 2026-04-26 09:22 | 49.20709 | -2.18297 | 275 ft | 0 kts | 17° |
| 2026-04-26 09:26 | 49.20704 | -2.18286 | 275 ft | 4 kts | 191° |
| 2026-04-26 09:26 | 49.20695 | -2.18352 | 276 ft | 8 kts | 270° |
| 2026-04-26 09:27 | 49.20699 | -2.18433 | 276 ft | 7 kts | 279° |
| 2026-04-26 09:27 | 49.20734 | -2.18499 | 276 ft | 10 kts | 279° |
| 2026-04-26 09:27 | 49.20721 | -2.18636 | 277 ft | 17 kts | 263° |
| 2026-04-26 09:27 | 49.20702 | -2.18883 | 277 ft | 26 kts | 263° |
| 2026-04-26 09:28 | 49.20681 | -2.19142 | 276 ft | 25 kts | 261° |
| 2026-04-26 09:28 | 49.20712 | -2.19403 | 275 ft | 23 kts | 274° |
| 2026-04-26 09:28 | 49.20678 | -2.19628 | 274 ft | 21 kts | 243° |
| 2026-04-26 09:28 | 49.20613 | -2.19748 | 274 ft | 14 kts | 266° |
| 2026-04-26 09:29 | 49.20602 | -2.19903 | 274 ft | 13 kts | 253° |
| 2026-04-26 09:29 | 49.20530 | -2.19937 | 274 ft | 12 kts | 224° |
| 2026-04-26 09:29 | 49.20532 | -2.20065 | 274 ft | 10 kts | 285° |
| 2026-04-26 09:29 | 49.20556 | -2.20180 | 276 ft | 13 kts | 287° |
| 2026-04-26 09:30 | 49.20586 | -2.20327 | 275 ft | 17 kts | 291° |
| 2026-04-26 09:30 | 49.20613 | -2.20474 | 274 ft | 11 kts | 285° |
| 2026-04-26 09:30 | 49.20623 | -2.20562 | 275 ft | 8 kts | 274° |
| 2026-04-26 09:30 | 49.20630 | -2.20660 | 275 ft | 10 kts | 288° |
| 2026-04-26 09:31 | 49.20697 | -2.20683 | 274 ft | 10 kts | 45° |
| 2026-04-26 09:31 | 49.20715 | -2.20529 | 275 ft | 35 kts | 82° |
| 2026-04-26 09:31 | 49.20768 | -2.19889 | 306 ft | 79 kts | 86° |
| 2026-04-26 09:31 | 49.20824 | -2.18968 | 451 ft | 96 kts | 87° |
| 2026-04-26 09:32 | 49.20918 | -2.17923 | 700 ft | 101 kts | 82° |
| 2026-04-26 09:32 | 49.21021 | -2.16879 | 1030 ft | 102 kts | 83° |
| 2026-04-26 09:32 | 49.21120 | -2.15808 | 1379 ft | 103 kts | 83° |
| 2026-04-26 09:32 | 49.21218 | -2.14722 | 1748 ft | 104 kts | 85° |
| 2026-04-26 09:33 | 49.21359 | -2.13636 | 2139 ft | 105 kts | 75° |
| 2026-04-26 09:33 | 49.21659 | -2.12604 | 2541 ft | 108 kts | 63° |
| 2026-04-26 09:33 | 49.22220 | -2.11855 | 2921 ft | 116 kts | 7° |
| 2026-04-26 09:33 | 49.22918 | -2.12356 | 3353 ft | 115 kts | 312° |
| 2026-04-26 09:34 | 49.23487 | -2.13225 | 3821 ft | 116 kts | 314° |
| 2026-04-26 09:34 | 49.24050 | -2.14102 | 4230 ft | 115 kts | 315° |
| 2026-04-26 09:34 | 49.24611 | -2.14976 | 4619 ft | 114 kts | 313° |
| 2026-04-26 09:34 | 49.25160 | -2.15853 | 5029 ft | 114 kts | 313° |
| 2026-04-26 09:35 | 49.25705 | -2.16719 | 5391 ft | 115 kts | 314° |
| 2026-04-26 09:35 | 49.26254 | -2.17605 | 5710 ft | 115 kts | 314° |
| 2026-04-26 09:35 | 49.26800 | -2.18498 | 6034 ft | 115 kts | 314° |
| 2026-04-26 09:35 | 49.27346 | -2.19398 | 6355 ft | 115 kts | 314° |
| 2026-04-26 09:36 | 49.27890 | -2.20306 | 6678 ft | 116 kts | 313° |
| 2026-04-26 09:36 | 49.28436 | -2.21221 | 6983 ft | 117 kts | 313° |
| 2026-04-26 09:36 | 49.29002 | -2.22111 | 7286 ft | 117 kts | 328° |
| 2026-04-26 09:36 | 49.29776 | -2.22467 | 7575 ft | 117 kts | 346° |
| 2026-04-26 09:37 | 49.30570 | -2.22776 | 7884 ft | 118 kts | 346° |
| 2026-04-26 09:37 | 49.31375 | -2.23075 | 8192 ft | 120 kts | 350° |
| 2026-04-26 09:37 | 49.32277 | -2.23047 | 8252 ft | 142 kts | 1° |
| 2026-04-26 09:37 | 49.33333 | -2.23001 | 8256 ft | 160 kts | 0° |
| 2026-04-26 09:38 | 49.34460 | -2.23264 | 8260 ft | 167 kts | 343° |
| 2026-04-26 09:38 | 49.35525 | -2.23982 | 8255 ft | 169 kts | 325° |
| 2026-04-26 09:38 | 49.36422 | -2.25121 | 8258 ft | 170 kts | 319° |
| 2026-04-26 09:38 | 49.37304 | -2.26343 | 8251 ft | 171 kts | 317° |
| 2026-04-26 09:39 | 49.38180 | -2.27589 | 8252 ft | 172 kts | 317° |
| 2026-04-26 09:39 | 49.39054 | -2.28842 | 8250 ft | 172 kts | 316° |
| 2026-04-26 09:39 | 49.39931 | -2.30100 | 8251 ft | 172 kts | 316° |
| 2026-04-26 09:39 | 49.40805 | -2.31356 | 8257 ft | 172 kts | 317° |
| 2026-04-26 09:40 | 49.41683 | -2.32618 | 8257 ft | 172 kts | 316° |
| 2026-04-26 09:40 | 49.42560 | -2.33877 | 8249 ft | 173 kts | 316° |
| 2026-04-26 09:40 | 49.43436 | -2.35144 | 8256 ft | 174 kts | 316° |
| 2026-04-26 09:40 | 49.44329 | -2.36416 | 8248 ft | 176 kts | 317° |
| 2026-04-26 09:41 | 49.45214 | -2.37672 | 8250 ft | 175 kts | 317° |
| 2026-04-26 09:41 | 49.46115 | -2.38959 | 8250 ft | 174 kts | 316° |
| 2026-04-26 09:41 | 49.46988 | -2.40209 | 8249 ft | 174 kts | 316° |
| 2026-04-26 09:41 | 49.47873 | -2.41476 | 8248 ft | 173 kts | 317° |
| 2026-04-26 09:42 | 49.48756 | -2.42742 | 8245 ft | 173 kts | 317° |
| 2026-04-26 09:42 | 49.49638 | -2.44007 | 8247 ft | 173 kts | 317° |
| 2026-04-26 09:42 | 49.50520 | -2.45272 | 8244 ft | 173 kts | 316° |
| 2026-04-26 09:42 | 49.51404 | -2.46539 | 8246 ft | 173 kts | 316° |
| 2026-04-26 09:43 | 49.52286 | -2.47807 | 8246 ft | 173 kts | 316° |
| 2026-04-26 09:43 | 49.53169 | -2.49074 | 8247 ft | 174 kts | 316° |
| 2026-04-26 09:43 | 49.54054 | -2.50347 | 8250 ft | 174 kts | 316° |
| 2026-04-26 09:43 | 49.54927 | -2.51602 | 8247 ft | 174 kts | 316° |
| 2026-04-26 09:44 | 49.55809 | -2.52871 | 8240 ft | 173 kts | 316° |
| 2026-04-26 09:44 | 49.56690 | -2.54139 | 8247 ft | 173 kts | 316° |
| 2026-04-26 09:44 | 49.57572 | -2.55409 | 8249 ft | 173 kts | 316° |
| 2026-04-26 09:44 | 49.58452 | -2.56677 | 8251 ft | 173 kts | 316° |
| 2026-04-26 09:45 | 49.59333 | -2.57948 | 8246 ft | 173 kts | 316° |
| 2026-04-26 09:45 | 49.60213 | -2.59217 | 8245 ft | 173 kts | 316° |
| 2026-04-26 09:45 | 49.61093 | -2.60487 | 8248 ft | 173 kts | 316° |
| 2026-04-26 09:45 | 49.61974 | -2.61759 | 8252 ft | 173 kts | 316° |
| 2026-04-26 09:46 | 49.62854 | -2.63030 | 8254 ft | 173 kts | 316° |
| 2026-04-26 09:46 | 49.63736 | -2.64304 | 8252 ft | 173 kts | 316° |
| 2026-04-26 09:46 | 49.64318 | -2.65147 | 8254 ft | 173 kts | 316° |
| 2026-04-26 09:46 | 49.65197 | -2.66418 | 8255 ft | 173 kts | 316° |
| 2026-04-26 09:47 | 49.66363 | -2.68105 | 8254 ft | 173 kts | 316° |
| 2026-04-26 09:47 | 49.67242 | -2.69379 | 8258 ft | 173 kts | 316° |
| 2026-04-26 09:47 | 49.67836 | -2.70239 | 8258 ft | 173 kts | 316° |
| 2026-04-26 09:47 | 49.68715 | -2.71514 | 8254 ft | 173 kts | 316° |
| 2026-04-26 09:48 | 49.69583 | -2.72773 | 8260 ft | 173 kts | 316° |
| 2026-04-26 09:48 | 49.70460 | -2.74046 | 8260 ft | 173 kts | 316° |
| 2026-04-26 09:48 | 49.71341 | -2.75324 | 8262 ft | 173 kts | 316° |
| 2026-04-26 09:48 | 49.72218 | -2.76599 | 8264 ft | 173 kts | 316° |
| 2026-04-26 09:49 | 49.73096 | -2.77875 | 8260 ft | 173 kts | 316° |
| 2026-04-26 09:49 | 49.73975 | -2.79152 | 8264 ft | 173 kts | 316° |
| 2026-04-26 09:49 | 49.74853 | -2.80431 | 8265 ft | 173 kts | 316° |
| 2026-04-26 09:49 | 49.75720 | -2.81693 | 8262 ft | 173 kts | 316° |
| 2026-04-26 09:50 | 49.76598 | -2.82971 | 8260 ft | 173 kts | 316° |
| 2026-04-26 09:50 | 49.77476 | -2.84251 | 8268 ft | 173 kts | 316° |
| 2026-04-26 09:50 | 49.78353 | -2.85530 | 8261 ft | 173 kts | 316° |
| 2026-04-26 09:50 | 49.79230 | -2.86809 | 8270 ft | 173 kts | 316° |
| 2026-04-26 09:51 | 49.80107 | -2.88089 | 8270 ft | 173 kts | 316° |
| 2026-04-26 09:51 | 49.80983 | -2.89368 | 8266 ft | 173 kts | 316° |
| 2026-04-26 09:51 | 49.81858 | -2.90647 | 8267 ft | 173 kts | 316° |
| 2026-04-26 09:51 | 49.82735 | -2.91928 | 8263 ft | 173 kts | 316° |
| 2026-04-26 09:52 | 49.83599 | -2.93192 | 8268 ft | 173 kts | 316° |
| 2026-04-26 09:52 | 49.85348 | -2.95752 | 8270 ft | 173 kts | 316° |
| 2026-04-26 09:52 | 49.86223 | -2.97034 | 8271 ft | 173 kts | 316° |
| 2026-04-26 09:53 | 49.87100 | -2.98319 | 8269 ft | 173 kts | 316° |
| 2026-04-26 09:53 | 49.87974 | -2.99602 | 8267 ft | 173 kts | 316° |
| 2026-04-26 09:53 | 49.88839 | -3.00870 | 8264 ft | 173 kts | 316° |
| 2026-04-26 09:53 | 49.89717 | -3.02160 | 8269 ft | 173 kts | 316° |
| 2026-04-26 09:54 | 49.90592 | -3.03443 | 8267 ft | 173 kts | 316° |
| 2026-04-26 09:54 | 49.91467 | -3.04729 | 8268 ft | 173 kts | 316° |
| 2026-04-26 09:54 | 49.92343 | -3.06017 | 8269 ft | 173 kts | 316° |
| 2026-04-26 09:54 | 49.93217 | -3.07304 | 8268 ft | 173 kts | 316° |
| 2026-04-26 09:55 | 49.94085 | -3.08580 | 8269 ft | 173 kts | 316° |
| 2026-04-26 09:55 | 49.94961 | -3.09871 | 8266 ft | 173 kts | 315° |
| 2026-04-26 09:55 | 49.95836 | -3.11160 | 8267 ft | 173 kts | 315° |
| 2026-04-26 09:55 | 49.96709 | -3.12448 | 8263 ft | 173 kts | 316° |
| 2026-04-26 09:56 | 49.97584 | -3.13737 | 8270 ft | 173 kts | 315° |
| 2026-04-26 09:56 | 49.98459 | -3.15029 | 8270 ft | 173 kts | 315° |
| 2026-04-26 09:56 | 49.99332 | -3.16317 | 8268 ft | 173 kts | 316° |
| 2026-04-26 09:56 | 50.00292 | -3.17434 | 8270 ft | 174 kts | 336° |
| 2026-04-26 09:57 | 50.01425 | -3.18013 | 8267 ft | 174 kts | 341° |
| 2026-04-26 09:57 | 50.02576 | -3.18595 | 8272 ft | 174 kts | 341° |
| 2026-04-26 09:57 | 50.03730 | -3.19173 | 8268 ft | 174 kts | 341° |
| 2026-04-26 09:57 | 50.04885 | -3.19752 | 8274 ft | 174 kts | 341° |
| 2026-04-26 09:58 | 50.06040 | -3.20331 | 8270 ft | 174 kts | 341° |
| 2026-04-26 09:58 | 50.07196 | -3.20910 | 8279 ft | 175 kts | 341° |
| 2026-04-26 09:58 | 50.08355 | -3.21492 | 8277 ft | 175 kts | 341° |
| 2026-04-26 09:58 | 50.09513 | -3.22074 | 8277 ft | 175 kts | 341° |
| 2026-04-26 09:59 | 50.10670 | -3.22655 | 8274 ft | 175 kts | 341° |
| 2026-04-26 09:59 | 50.11827 | -3.23237 | 8276 ft | 175 kts | 341° |
| 2026-04-26 09:59 | 50.12989 | -3.23821 | 8277 ft | 175 kts | 341° |
| 2026-04-26 09:59 | 50.14132 | -3.24396 | 8273 ft | 175 kts | 341° |
| 2026-04-26 10:00 | 50.15294 | -3.24981 | 8283 ft | 175 kts | 341° |
| 2026-04-26 10:00 | 50.16457 | -3.25567 | 8277 ft | 175 kts | 341° |
| 2026-04-26 10:00 | 50.17619 | -3.26152 | 8277 ft | 176 kts | 341° |
| 2026-04-26 10:00 | 50.18787 | -3.26740 | 8285 ft | 176 kts | 341° |
| 2026-04-26 10:01 | 50.19949 | -3.27328 | 8288 ft | 176 kts | 341° |
| 2026-04-26 10:01 | 50.21114 | -3.27915 | 8281 ft | 176 kts | 341° |
| 2026-04-26 10:01 | 50.22263 | -3.28495 | 8279 ft | 176 kts | 341° |
| 2026-04-26 10:01 | 50.23432 | -3.29086 | 8286 ft | 176 kts | 341° |
| 2026-04-26 10:02 | 50.24600 | -3.29676 | 8288 ft | 176 kts | 341° |
| 2026-04-26 10:02 | 50.25766 | -3.30266 | 8279 ft | 176 kts | 341° |
| 2026-04-26 10:02 | 50.26934 | -3.30856 | 8289 ft | 176 kts | 341° |
| 2026-04-26 10:02 | 50.28100 | -3.31447 | 8285 ft | 176 kts | 341° |
| 2026-04-26 10:03 | 50.29271 | -3.32040 | 8283 ft | 177 kts | 341° |
| 2026-04-26 10:03 | 50.30440 | -3.32633 | 8271 ft | 177 kts | 341° |
| 2026-04-26 10:03 | 50.31597 | -3.33219 | 8284 ft | 177 kts | 341° |
| 2026-04-26 10:03 | 50.32766 | -3.33812 | 8280 ft | 177 kts | 341° |
| 2026-04-26 10:04 | 50.33939 | -3.34407 | 8288 ft | 177 kts | 341° |
| 2026-04-26 10:04 | 50.35110 | -3.35003 | 8279 ft | 177 kts | 341° |
| 2026-04-26 10:04 | 50.36281 | -3.35597 | 8276 ft | 177 kts | 341° |
| 2026-04-26 10:04 | 50.37454 | -3.36194 | 8278 ft | 177 kts | 341° |
| 2026-04-26 10:05 | 50.38623 | -3.36788 | 8282 ft | 177 kts | 341° |
| 2026-04-26 10:05 | 50.39794 | -3.37384 | 8288 ft | 177 kts | 341° |
| 2026-04-26 10:05 | 50.40964 | -3.37980 | 8288 ft | 177 kts | 340° |
| 2026-04-26 10:05 | 50.42132 | -3.38575 | 8286 ft | 177 kts | 341° |
| 2026-04-26 10:06 | 50.43304 | -3.39172 | 8289 ft | 177 kts | 341° |
| 2026-04-26 10:06 | 50.44472 | -3.39768 | 8295 ft | 177 kts | 341° |
| 2026-04-26 10:06 | 50.45644 | -3.40365 | 8291 ft | 177 kts | 340° |
| 2026-04-26 10:06 | 50.46813 | -3.40963 | 8296 ft | 177 kts | 341° |
| 2026-04-26 10:07 | 50.47985 | -3.41561 | 8295 ft | 177 kts | 340° |
| 2026-04-26 10:07 | 50.49155 | -3.42159 | 8292 ft | 177 kts | 341° |
| 2026-04-26 10:07 | 50.50308 | -3.42748 | 8300 ft | 177 kts | 340° |
| 2026-04-26 10:07 | 50.51483 | -3.43349 | 8302 ft | 177 kts | 340° |
| 2026-04-26 10:08 | 50.52653 | -3.43948 | 8293 ft | 177 kts | 340° |
| 2026-04-26 10:08 | 50.53824 | -3.44548 | 8292 ft | 177 kts | 341° |
| 2026-04-26 10:08 | 50.54995 | -3.45148 | 8303 ft | 177 kts | 341° |
| 2026-04-26 10:08 | 50.56164 | -3.45747 | 8303 ft | 177 kts | 341° |
| 2026-04-26 10:09 | 50.57347 | -3.46290 | 8298 ft | 177 kts | 351° |
| 2026-04-26 10:09 | 50.58578 | -3.46193 | 8304 ft | 180 kts | 6° |
| 2026-04-26 10:09 | 50.59836 | -3.45983 | 8301 ft | 182 kts | 5° |
| 2026-04-26 10:09 | 50.61101 | -3.45773 | 8298 ft | 183 kts | 6° |
| 2026-04-26 10:10 | 50.62367 | -3.45554 | 8293 ft | 183 kts | 6° |
| 2026-04-26 10:10 | 50.63613 | -3.45341 | 8299 ft | 182 kts | 6° |
| 2026-04-26 10:10 | 50.64866 | -3.45127 | 8293 ft | 181 kts | 6° |
| 2026-04-26 10:10 | 50.66118 | -3.44913 | 8300 ft | 181 kts | 6° |
| 2026-04-26 10:11 | 50.67367 | -3.44700 | 8299 ft | 180 kts | 6° |
| 2026-04-26 10:11 | 50.68617 | -3.44485 | 8299 ft | 181 kts | 6° |
| 2026-04-26 10:11 | 50.69878 | -3.44265 | 8303 ft | 183 kts | 6° |
| 2026-04-26 10:11 | 50.71154 | -3.44056 | 8305 ft | 185 kts | 6° |
| 2026-04-26 10:12 | 50.72435 | -3.43836 | 8297 ft | 185 kts | 6° |
| 2026-04-26 10:12 | 50.73701 | -3.43613 | 8307 ft | 185 kts | 5° |
| 2026-04-26 10:12 | 50.74982 | -3.43400 | 8295 ft | 184 kts | 6° |
| 2026-04-26 10:12 | 50.76248 | -3.43176 | 8297 ft | 182 kts | 6° |
| 2026-04-26 10:13 | 50.77504 | -3.42964 | 8299 ft | 181 kts | 6° |
| 2026-04-26 10:13 | 50.78759 | -3.42748 | 8294 ft | 181 kts | 6° |
| 2026-04-26 10:13 | 50.80007 | -3.42534 | 8299 ft | 181 kts | 6° |
| 2026-04-26 10:13 | 50.81257 | -3.42318 | 8291 ft | 180 kts | 6° |
| 2026-04-26 10:14 | 50.82505 | -3.42103 | 8300 ft | 181 kts | 6° |
| 2026-04-26 10:14 | 50.83759 | -3.41888 | 8294 ft | 181 kts | 6° |
| 2026-04-26 10:14 | 50.85009 | -3.41673 | 8295 ft | 180 kts | 6° |
| 2026-04-26 10:14 | 50.86254 | -3.41457 | 8293 ft | 180 kts | 6° |
| 2026-04-26 10:15 | 50.87487 | -3.41248 | 8290 ft | 180 kts | 6° |
| 2026-04-26 10:15 | 50.88740 | -3.41029 | 8298 ft | 181 kts | 6° |
| 2026-04-26 10:15 | 50.89998 | -3.40813 | 8294 ft | 181 kts | 6° |
| 2026-04-26 10:15 | 50.91256 | -3.40594 | 8293 ft | 182 kts | 6° |
| 2026-04-26 10:16 | 50.92514 | -3.40380 | 8291 ft | 183 kts | 6° |
| 2026-04-26 10:16 | 50.93772 | -3.40161 | 8302 ft | 181 kts | 5° |
| 2026-04-26 10:16 | 50.95028 | -3.39944 | 8296 ft | 181 kts | 6° |
| 2026-04-26 10:16 | 50.96287 | -3.39722 | 8289 ft | 181 kts | 6° |
| 2026-04-26 10:17 | 50.97543 | -3.39507 | 8292 ft | 183 kts | 6° |
| 2026-04-26 10:17 | 50.98807 | -3.39290 | 8291 ft | 181 kts | 6° |
| 2026-04-26 10:17 | 51.00060 | -3.39073 | 8289 ft | 181 kts | 6° |
| 2026-04-26 10:17 | 51.01302 | -3.38855 | 8288 ft | 182 kts | 6° |
| 2026-04-26 10:18 | 51.02561 | -3.38640 | 8299 ft | 182 kts | 6° |
| 2026-04-26 10:18 | 51.03833 | -3.38424 | 8297 ft | 185 kts | 6° |
| 2026-04-26 10:18 | 51.05113 | -3.38192 | 8286 ft | 184 kts | 6° |
| 2026-04-26 10:18 | 51.06378 | -3.37972 | 8286 ft | 182 kts | 6° |
| 2026-04-26 10:19 | 51.07639 | -3.37757 | 8294 ft | 184 kts | 6° |
| 2026-04-26 10:19 | 51.08914 | -3.37533 | 8288 ft | 183 kts | 6° |
| 2026-04-26 10:19 | 51.10176 | -3.37314 | 8292 ft | 182 kts | 6° |
| 2026-04-26 10:19 | 51.11420 | -3.37100 | 8292 ft | 181 kts | 6° |
| 2026-04-26 10:20 | 51.12675 | -3.36880 | 8290 ft | 182 kts | 6° |
| 2026-04-26 10:20 | 51.13526 | -3.36728 | 8292 ft | 182 kts | 6° |
| 2026-04-26 10:20 | 51.15189 | -3.36443 | 8285 ft | 182 kts | 6° |
| 2026-04-26 10:20 | 51.16443 | -3.36222 | 8286 ft | 181 kts | 6° |
| 2026-04-26 10:21 | 51.17698 | -3.36002 | 8289 ft | 181 kts | 6° |
| 2026-04-26 10:21 | 51.18940 | -3.35667 | 8288 ft | 180 kts | 9° |
| 2026-04-26 10:21 | 51.20178 | -3.35347 | 8289 ft | 179 kts | 9° |
| 2026-04-26 10:21 | 51.21409 | -3.35028 | 8288 ft | 179 kts | 9° |
| 2026-04-26 10:22 | 51.22635 | -3.34703 | 8288 ft | 178 kts | 9° |
| 2026-04-26 10:22 | 51.23859 | -3.34375 | 8287 ft | 178 kts | 9° |
| 2026-04-26 10:22 | 51.25080 | -3.34049 | 8286 ft | 178 kts | 9° |
| 2026-04-26 10:22 | 51.26303 | -3.33722 | 8286 ft | 178 kts | 9° |
| 2026-04-26 10:23 | 51.27523 | -3.33396 | 8287 ft | 178 kts | 9° |
| 2026-04-26 10:23 | 51.28728 | -3.33075 | 8288 ft | 178 kts | 9° |
| 2026-04-26 10:23 | 51.29945 | -3.32749 | 8286 ft | 178 kts | 9° |
| 2026-04-26 10:23 | 51.31165 | -3.32422 | 8289 ft | 178 kts | 9° |
| 2026-04-26 10:24 | 51.32386 | -3.32095 | 8289 ft | 178 kts | 9° |
| 2026-04-26 10:24 | 51.33605 | -3.31769 | 8289 ft | 177 kts | 9° |
| 2026-04-26 10:24 | 51.34822 | -3.31442 | 8288 ft | 177 kts | 9° |
| 2026-04-26 10:24 | 51.36040 | -3.31116 | 8288 ft | 177 kts | 9° |
| 2026-04-26 10:25 | 51.37258 | -3.30789 | 8288 ft | 178 kts | 9° |
| 2026-04-26 10:25 | 51.38477 | -3.30461 | 8288 ft | 178 kts | 9° |
| 2026-04-26 10:25 | 51.39696 | -3.30135 | 8290 ft | 178 kts | 9° |
| 2026-04-26 10:25 | 51.40922 | -3.29805 | 8293 ft | 179 kts | 9° |
| 2026-04-26 10:26 | 51.42152 | -3.29498 | 8288 ft | 179 kts | 5° |
| 2026-04-26 10:26 | 51.43387 | -3.29268 | 8292 ft | 179 kts | 7° |
| 2026-04-26 10:26 | 51.44607 | -3.29000 | 8295 ft | 180 kts | 7° |
| 2026-04-26 10:26 | 51.45851 | -3.28741 | 8298 ft | 181 kts | 6° |
| 2026-04-26 10:27 | 51.47095 | -3.28488 | 8298 ft | 180 kts | 6° |
| 2026-04-26 10:27 | 51.48339 | -3.28237 | 8300 ft | 180 kts | 6° |
| 2026-04-26 10:27 | 51.49582 | -3.27982 | 8298 ft | 180 kts | 6° |
| 2026-04-26 10:27 | 51.50825 | -3.27729 | 8297 ft | 181 kts | 6° |
| 2026-04-26 10:28 | 51.52073 | -3.27474 | 8292 ft | 181 kts | 6° |
| 2026-04-26 10:28 | 51.53323 | -3.27220 | 8304 ft | 181 kts | 7° |
| 2026-04-26 10:28 | 51.54576 | -3.26964 | 8297 ft | 182 kts | 6° |
| 2026-04-26 10:28 | 51.55840 | -3.26704 | 8297 ft | 183 kts | 7° |
| 2026-04-26 10:29 | 51.57096 | -3.26452 | 8305 ft | 181 kts | 7° |
| 2026-04-26 10:29 | 51.58349 | -3.26189 | 8302 ft | 183 kts | 7° |
| 2026-04-26 10:29 | 51.59605 | -3.25935 | 8297 ft | 181 kts | 6° |
| 2026-04-26 10:29 | 51.60834 | -3.25684 | 8295 ft | 180 kts | 6° |
| 2026-04-26 10:30 | 51.62082 | -3.25430 | 8296 ft | 181 kts | 6° |
| 2026-04-26 10:30 | 51.63331 | -3.25170 | 8322 ft | 181 kts | 6° |
| 2026-04-26 10:30 | 51.64580 | -3.24912 | 8335 ft | 181 kts | 6° |
| 2026-04-26 10:30 | 51.65834 | -3.24657 | 8335 ft | 182 kts | 6° |
| 2026-04-26 10:31 | 51.67098 | -3.24400 | 8328 ft | 184 kts | 6° |
| 2026-04-26 10:31 | 51.68360 | -3.24139 | 8326 ft | 181 kts | 6° |
| 2026-04-26 10:31 | 51.69617 | -3.23940 | 8330 ft | 182 kts | 1° |
| 2026-04-26 10:31 | 51.70874 | -3.23821 | 8340 ft | 181 kts | 3° |
| 2026-04-26 10:32 | 51.72140 | -3.23682 | 8329 ft | 182 kts | 3° |
| 2026-04-26 10:32 | 51.73398 | -3.23549 | 8329 ft | 181 kts | 2° |
| 2026-04-26 10:32 | 51.74641 | -3.23424 | 8337 ft | 183 kts | 2° |
| 2026-04-26 10:32 | 51.75912 | -3.23289 | 8325 ft | 181 kts | 2° |
| 2026-04-26 10:33 | 51.77169 | -3.23164 | 8328 ft | 180 kts | 2° |
| 2026-04-26 10:33 | 51.78422 | -3.23039 | 8329 ft | 180 kts | 2° |
| 2026-04-26 10:33 | 51.79676 | -3.22910 | 8331 ft | 181 kts | 2° |
| 2026-04-26 10:33 | 51.80936 | -3.22781 | 8334 ft | 182 kts | 2° |
| 2026-04-26 10:34 | 51.82197 | -3.22650 | 8334 ft | 181 kts | 2° |
| 2026-04-26 10:34 | 51.83463 | -3.22524 | 8335 ft | 182 kts | 2° |
| 2026-04-26 10:34 | 51.84725 | -3.22389 | 8326 ft | 182 kts | 2° |
| 2026-04-26 10:34 | 51.85990 | -3.22263 | 8323 ft | 182 kts | 2° |
| 2026-04-26 10:35 | 51.87232 | -3.22133 | 8320 ft | 179 kts | 2° |
| 2026-04-26 10:35 | 51.88474 | -3.22006 | 8319 ft | 179 kts | 2° |
| 2026-04-26 10:35 | 51.89727 | -3.21873 | 8319 ft | 181 kts | 2° |
| 2026-04-26 10:35 | 51.90981 | -3.21749 | 8328 ft | 180 kts | 2° |
| 2026-04-26 10:36 | 51.92241 | -3.21620 | 8326 ft | 181 kts | 2° |
| 2026-04-26 10:36 | 51.93506 | -3.21490 | 8320 ft | 183 kts | 2° |
| 2026-04-26 10:36 | 51.94756 | -3.21356 | 8317 ft | 181 kts | 2° |
| 2026-04-26 10:36 | 51.96014 | -3.21229 | 8319 ft | 181 kts | 2° |
| 2026-04-26 10:37 | 51.97274 | -3.21101 | 8317 ft | 181 kts | 2° |
| 2026-04-26 10:37 | 51.98525 | -3.20969 | 8306 ft | 179 kts | 2° |
| 2026-04-26 10:37 | 51.99772 | -3.20841 | 8314 ft | 180 kts | 2° |
| 2026-04-26 10:37 | 52.01032 | -3.20714 | 8308 ft | 181 kts | 2° |
| 2026-04-26 10:38 | 52.01867 | -3.20619 | 8304 ft | 181 kts | 2° |
| 2026-04-26 10:38 | 52.03125 | -3.20498 | 8309 ft | 182 kts | 2° |
| 2026-04-26 10:38 | 52.04385 | -3.20366 | 8300 ft | 180 kts | 2° |
| 2026-04-26 10:38 | 52.05630 | -3.20236 | 8302 ft | 179 kts | 2° |
| 2026-04-26 10:39 | 52.06874 | -3.20106 | 8299 ft | 179 kts | 2° |
| 2026-04-26 10:39 | 52.08114 | -3.19974 | 8304 ft | 179 kts | 2° |
| 2026-04-26 10:39 | 52.09359 | -3.19848 | 8304 ft | 180 kts | 2° |
| 2026-04-26 10:39 | 52.10606 | -3.19719 | 8302 ft | 179 kts | 2° |
| 2026-04-26 10:40 | 52.11848 | -3.19593 | 8299 ft | 178 kts | 2° |
| 2026-04-26 10:40 | 52.13081 | -3.19461 | 8302 ft | 177 kts | 2° |
| 2026-04-26 10:40 | 52.14291 | -3.19334 | 8305 ft | 177 kts | 2° |
| 2026-04-26 10:40 | 52.15522 | -3.19208 | 8304 ft | 177 kts | 2° |
| 2026-04-26 10:41 | 52.16748 | -3.19080 | 8299 ft | 176 kts | 2° |
| 2026-04-26 10:41 | 52.17973 | -3.18954 | 8295 ft | 176 kts | 2° |
| 2026-04-26 10:41 | 52.19196 | -3.18824 | 8299 ft | 176 kts | 2° |
| 2026-04-26 10:41 | 52.20422 | -3.18697 | 8297 ft | 177 kts | 2° |
| 2026-04-26 10:42 | 52.21647 | -3.18570 | 8298 ft | 176 kts | 2° |
| 2026-04-26 10:42 | 52.22870 | -3.18442 | 8300 ft | 176 kts | 2° |
| 2026-04-26 10:42 | 52.24098 | -3.18314 | 8301 ft | 177 kts | 2° |
| 2026-04-26 10:42 | 52.25322 | -3.18187 | 8304 ft | 177 kts | 2° |
| 2026-04-26 10:43 | 52.26557 | -3.18055 | 8306 ft | 178 kts | 2° |
| 2026-04-26 10:43 | 52.27805 | -3.17926 | 8308 ft | 180 kts | 2° |
| 2026-04-26 10:43 | 52.29052 | -3.17796 | 8302 ft | 178 kts | 2° |
| 2026-04-26 10:43 | 52.30289 | -3.17666 | 8312 ft | 178 kts | 2° |
| 2026-04-26 10:44 | 52.31528 | -3.17537 | 8302 ft | 178 kts | 2° |
| 2026-04-26 10:44 | 52.32764 | -3.17406 | 8305 ft | 178 kts | 2° |
| 2026-04-26 10:44 | 52.33997 | -3.17278 | 8303 ft | 177 kts | 2° |
| 2026-04-26 10:44 | 52.35212 | -3.17150 | 8303 ft | 177 kts | 2° |
| 2026-04-26 10:45 | 52.36441 | -3.17021 | 8303 ft | 176 kts | 2° |
| 2026-04-26 10:45 | 52.37669 | -3.16889 | 8302 ft | 177 kts | 2° |
| 2026-04-26 10:45 | 52.38897 | -3.16763 | 8302 ft | 178 kts | 2° |
| 2026-04-26 10:45 | 52.40134 | -3.16637 | 8304 ft | 178 kts | 2° |
| 2026-04-26 10:46 | 52.41370 | -3.16500 | 8303 ft | 177 kts | 2° |
| 2026-04-26 10:46 | 52.42597 | -3.16372 | 8306 ft | 176 kts | 2° |
| 2026-04-26 10:46 | 52.43825 | -3.16244 | 8300 ft | 177 kts | 2° |
| 2026-04-26 10:46 | 52.45053 | -3.16115 | 8302 ft | 177 kts | 2° |
| 2026-04-26 10:47 | 52.46281 | -3.15983 | 8302 ft | 176 kts | 2° |
| 2026-04-26 10:47 | 52.47511 | -3.15854 | 8310 ft | 178 kts | 2° |
| 2026-04-26 10:47 | 52.48754 | -3.15725 | 8302 ft | 179 kts | 2° |
| 2026-04-26 10:47 | 52.49991 | -3.15592 | 8303 ft | 178 kts | 2° |
| 2026-04-26 10:48 | 52.51222 | -3.15462 | 8304 ft | 177 kts | 2° |
| 2026-04-26 10:48 | 52.52434 | -3.15335 | 8309 ft | 177 kts | 2° |
| 2026-04-26 10:48 | 52.53657 | -3.15204 | 8303 ft | 176 kts | 2° |
| 2026-04-26 10:48 | 52.54877 | -3.15075 | 8299 ft | 176 kts | 2° |
| 2026-04-26 10:49 | 52.56097 | -3.14949 | 8311 ft | 176 kts | 2° |
| 2026-04-26 10:49 | 52.57320 | -3.14818 | 8307 ft | 176 kts | 2° |
| 2026-04-26 10:49 | 52.58545 | -3.14684 | 8304 ft | 176 kts | 2° |
| 2026-04-26 10:49 | 52.59769 | -3.14559 | 8304 ft | 176 kts | 2° |
| 2026-04-26 10:50 | 52.60992 | -3.14428 | 8313 ft | 176 kts | 2° |
| 2026-04-26 10:50 | 52.61805 | -3.14340 | 8304 ft | 176 kts | 2° |
| 2026-04-26 10:50 | 52.63442 | -3.14166 | 8311 ft | 176 kts | 2° |
| 2026-04-26 10:50 | 52.64671 | -3.14035 | 8310 ft | 176 kts | 2° |
| 2026-04-26 10:51 | 52.65884 | -3.13906 | 8313 ft | 178 kts | 2° |
| 2026-04-26 10:51 | 52.68341 | -3.13645 | 8310 ft | 176 kts | 2° |
| 2026-04-26 10:51 | 52.69559 | -3.13515 | 8311 ft | 175 kts | 2° |
| 2026-04-26 10:52 | 52.70773 | -3.13385 | 8309 ft | 174 kts | 2° |
| 2026-04-26 10:52 | 52.71982 | -3.13308 | 8309 ft | 173 kts | 354° |
| 2026-04-26 10:52 | 52.73172 | -3.13601 | 8308 ft | 173 kts | 351° |
| 2026-04-26 10:52 | 52.74361 | -3.13879 | 8309 ft | 173 kts | 351° |
| 2026-04-26 10:53 | 52.75537 | -3.14155 | 8309 ft | 173 kts | 351° |
| 2026-04-26 10:53 | 52.76727 | -3.14435 | 8311 ft | 173 kts | 351° |
| 2026-04-26 10:53 | 52.77921 | -3.14715 | 8309 ft | 173 kts | 351° |
| 2026-04-26 10:54 | 52.80304 | -3.15278 | 8311 ft | 173 kts | 351° |
| 2026-04-26 10:54 | 52.81500 | -3.15560 | 8316 ft | 174 kts | 350° |
| 2026-04-26 10:54 | 52.82708 | -3.15846 | 8307 ft | 176 kts | 350° |
| 2026-04-26 10:54 | 52.83921 | -3.16130 | 8309 ft | 176 kts | 351° |
| 2026-04-26 10:55 | 52.85135 | -3.16417 | 8306 ft | 176 kts | 350° |
| 2026-04-26 10:55 | 52.86347 | -3.16707 | 8301 ft | 176 kts | 351° |
| 2026-04-26 10:55 | 52.87555 | -3.16993 | 8296 ft | 178 kts | 350° |
| 2026-04-26 10:55 | 52.88782 | -3.17281 | 8300 ft | 178 kts | 350° |
| 2026-04-26 10:56 | 52.90013 | -3.17355 | 8297 ft | 178 kts | 2° |
| 2026-04-26 10:56 | 52.91242 | -3.17245 | 8301 ft | 176 kts | 1° |
| 2026-04-26 10:56 | 52.92464 | -3.17149 | 8297 ft | 175 kts | 1° |
| 2026-04-26 10:56 | 52.93679 | -3.17059 | 8306 ft | 175 kts | 1° |
| 2026-04-26 10:57 | 52.94899 | -3.16963 | 8297 ft | 176 kts | 1° |
| 2026-04-26 10:57 | 52.96121 | -3.16868 | 8302 ft | 175 kts | 1° |
| 2026-04-26 10:57 | 52.97339 | -3.16772 | 8272 ft | 177 kts | 1° |
| 2026-04-26 10:57 | 52.98598 | -3.16675 | 8104 ft | 181 kts | 1° |
| 2026-04-26 10:58 | 52.99829 | -3.16574 | 7922 ft | 175 kts | 2° |
| 2026-04-26 10:58 | 53.01016 | -3.16483 | 7746 ft | 170 kts | 1° |
| 2026-04-26 10:58 | 53.02190 | -3.16389 | 7568 ft | 169 kts | 1° |
| 2026-04-26 10:58 | 53.03372 | -3.16295 | 7394 ft | 170 kts | 1° |
| 2026-04-26 10:59 | 53.04557 | -3.16202 | 7225 ft | 170 kts | 1° |
| 2026-04-26 10:59 | 53.05747 | -3.16108 | 7058 ft | 171 kts | 1° |
| 2026-04-26 10:59 | 53.06936 | -3.16014 | 6870 ft | 171 kts | 1° |
| 2026-04-26 10:59 | 53.08124 | -3.15920 | 6711 ft | 171 kts | 1° |
| 2026-04-26 11:00 | 53.09314 | -3.15828 | 6526 ft | 171 kts | 1° |
| 2026-04-26 11:00 | 53.10503 | -3.15730 | 6351 ft | 172 kts | 1° |
| 2026-04-26 11:00 | 53.11701 | -3.15634 | 6170 ft | 172 kts | 1° |
| 2026-04-26 11:00 | 53.12887 | -3.15542 | 5993 ft | 170 kts | 1° |
| 2026-04-26 11:01 | 53.14064 | -3.15452 | 5812 ft | 169 kts | 1° |
| 2026-04-26 11:01 | 53.15242 | -3.15364 | 5651 ft | 171 kts | 1° |
| 2026-04-26 11:01 | 53.16421 | -3.15243 | 5473 ft | 171 kts | 3° |
| 2026-04-26 11:01 | 53.17554 | -3.14636 | 5299 ft | 174 kts | 31° |
| 2026-04-26 11:02 | 53.18427 | -3.13259 | 5130 ft | 174 kts | 57° |
| 2026-04-26 11:02 | 53.18860 | -3.11407 | 4952 ft | 172 kts | 81° |
| 2026-04-26 11:02 | 53.18813 | -3.09417 | 4749 ft | 172 kts | 98° |
| 2026-04-26 11:02 | 53.18654 | -3.07402 | 4552 ft | 176 kts | 97° |
| 2026-04-26 11:03 | 53.18496 | -3.05378 | 4357 ft | 177 kts | 98° |
| 2026-04-26 11:03 | 53.18336 | -3.03357 | 4148 ft | 174 kts | 98° |
| 2026-04-26 11:03 | 53.18189 | -3.01405 | 3944 ft | 167 kts | 97° |
| 2026-04-26 11:03 | 53.18044 | -2.99491 | 3756 ft | 168 kts | 95° |
| 2026-04-26 11:04 | 53.18231 | -2.97619 | 3527 ft | 160 kts | 67° |
| 2026-04-26 11:04 | 53.18786 | -2.96145 | 3304 ft | 145 kts | 49° |
| 2026-04-26 11:04 | 53.19418 | -2.94860 | 3072 ft | 142 kts | 50° |
| 2026-04-26 11:04 | 53.20032 | -2.93589 | 2862 ft | 141 kts | 50° |
| 2026-04-26 11:05 | 53.20633 | -2.92351 | 2645 ft | 134 kts | 50° |
| 2026-04-26 11:05 | 53.21198 | -2.91183 | 2437 ft | 126 kts | 50° |
| 2026-04-26 11:05 | 53.21738 | -2.90068 | 2240 ft | 123 kts | 50° |
| 2026-04-26 11:05 | 53.22411 | -2.89242 | 2010 ft | 122 kts | 6° |
| 2026-04-26 11:06 | 53.23125 | -2.89773 | 1814 ft | 113 kts | 302° |
| 2026-04-26 11:06 | 53.23235 | -2.90580 | 1666 ft | 107 kts | 260° |
| 2026-04-26 11:06 | 53.22557 | -2.91567 | 1383 ft | 100 kts | 204° |
| 2026-04-26 11:06 | 53.21925 | -2.92048 | 1110 ft | 98 kts | 206° |
| 2026-04-26 11:07 | 53.21383 | -2.92583 | 909 ft | 87 kts | 212° |
| 2026-04-26 11:07 | 53.20911 | -2.93207 | 767 ft | 86 kts | 217° |
| 2026-04-26 11:07 | 53.20484 | -2.93841 | 607 ft | 82 kts | 216° |
| 2026-04-26 11:07 | 53.20056 | -2.94509 | 513 ft | 88 kts | 216° |
| 2026-04-26 11:08 | 53.19591 | -2.95171 | 406 ft | 86 kts | 215° |
| 2026-04-26 11:08 | 53.19157 | -2.95804 | 272 ft | 81 kts | 216° |
| 2026-04-26 11:08 | 53.18751 | -2.96409 | 141 ft | 75 kts | 215° |
| 2026-04-26 11:08 | 53.18349 | -2.96993 | 53 ft | 77 kts | 215° |
| 2026-04-26 11:09 | 53.17992 | -2.97498 | 23 ft | 54 kts | 221° |
| 2026-04-26 11:09 | 53.17836 | -2.97730 | 27 ft | 22 kts | 223° |
| 2026-04-26 11:09 | 53.17746 | -2.97866 | 29 ft | 13 kts | 233° |
| 2026-04-26 11:09 | 53.17777 | -2.97977 | 29 ft | 11 kts | 313° |
| 2026-04-26 11:10 | 53.17831 | -2.98076 | 29 ft | 11 kts | 310° |
| 2026-04-26 11:10 | 53.17884 | -2.98095 | 28 ft | 9 kts | 39° |
| 2026-04-26 11:10 | 53.17949 | -2.98002 | 28 ft | 17 kts | 41° |
| 2026-04-26 11:10 | 53.18054 | -2.97849 | 27 ft | 20 kts | 40° |
| 2026-04-26 11:11 | 53.18156 | -2.97702 | 24 ft | 19 kts | 42° |
| 2026-04-26 11:11 | 53.18253 | -2.97562 | 23 ft | 15 kts | 36° |
| 2026-04-26 11:11 | 53.18353 | -2.97556 | 22 ft | 15 kts | 356° |
| 2026-04-26 11:11 | 53.18457 | -2.97552 | 21 ft | 14 kts | 24° |
| 2026-04-26 11:12 | 53.18505 | -2.97562 | 21 ft | 8 kts | 285° |
| 2026-04-26 11:12 | 53.18527 | -2.97697 | 21 ft | 14 kts | 287° |
| 2026-04-26 11:12 | 53.18572 | -2.97702 | 21 ft | 11 kts | 75° |
| 2026-04-26 11:12 | 53.18594 | -2.97555 | 20 ft | 13 kts | 103° |
| 2026-04-26 11:13 | 53.18537 | -2.97478 | 20 ft | 10 kts | 131° |
| 2026-04-26 11:13 | 53.18520 | -2.97436 | 20 ft | 0 kts | 122° |